Startpagina
METAR-TAF:

METAR-TAF

Vliegvelden :

Aeropuerto Federico García Lorca Granada-Jaén

Granada, Spanje

breedte: 37-11N, lengte: 003-47W, hoogte: 567 m

Actueel weer

Dit bericht is 43 minuten geleden gemaakt, om 12:30 UTC
Wind 4 kt uit variabele richting
Temperatuur 39°C
Vochtigheid 13%
Druk 1017 hPa
Zicht 10 km of meer
geen wolken onder 1500 m en geen cumulonimbus

METAR: LEGR 071230Z VRB04KT CAVOK 39/06 Q1017

Tijdstip: 15:13 (13:13 UTC)

Verwachting

Dit bericht is 5 uur en het 13 minuten geleden gemaakt, om 08:00 UTC
Verwachting geldig van 07 om 09 UTC tot 08 om 09 UTC
Wind 2 kt uit variabele richting
Zicht 10 km of meer
geen wolken onder 1500 m en geen cumulonimbus
Wijzigt naar
van 07 om 12 UTC tot 07 om 15 UTC
Wind 10 kt uit het westnoordwesten
Wijzigt naar
van 07 om 20 UTC tot 07 om 23 UTC
Wind 2 kt uit variabele richting

TAF: LEGR 070800Z 0709/0809 VRB02KT CAVOK TX40/0716Z TN20/0805Z BECMG 0712/0715 30010KT BECMG 0720/0723 VRB02KT

Waarnemingen en weersverwachtingen van meer dan 4000 vliegvelden (METAR en TAF).

De beschikbare stations zijn de gele en rode punten op de kaart.

Ga met uw muis naar het station om de naam te zien.

Klik dan om waarnemingen en weersverwachtingen te zien.

kaart wijzigen: klik op de groene knoppen met een zwart kruis om in te zoomen, op de groene knop met een streepje om uit te zoomen of op de groene pijlen voor aangrenzende kaarten.


METAR-TAF: